createdAt,value
2023-05-09T00:01:31.271Z,87.12
2023-05-09T00:04:35.394Z,87.45
2023-05-09T00:07:38.267Z,87.73
2023-05-09T00:10:40.881Z,87.34
2023-05-09T00:13:44.089Z,86.97
2023-05-09T00:16:46.924Z,86.76
2023-05-09T00:19:51.520Z,85.90
2023-05-09T00:22:55.299Z,85.04
2023-05-09T00:25:58.051Z,83.60
2023-05-09T00:29:00.565Z,83.06
2023-05-09T00:32:03.720Z,82.25
2023-05-09T00:35:09.921Z,81.52
2023-05-09T00:38:12.477Z,81.62
2023-05-09T00:41:15.038Z,81.87
2023-05-09T00:44:17.619Z,82.36
2023-05-09T00:47:24.138Z,82.82
2023-05-09T00:50:28.307Z,83.63
2023-05-09T00:53:31.074Z,83.85
2023-05-09T00:56:33.640Z,84.32
2023-05-09T00:59:36.155Z,84.87
2023-05-09T01:02:38.770Z,85.91
2023-05-09T01:05:48.301Z,86.59
2023-05-09T01:08:57.609Z,87.18
2023-05-09T01:12:08.380Z,87.03
2023-05-09T01:15:13.802Z,87.40
2023-05-09T01:18:32.204Z,87.10
2023-05-09T01:21:36.605Z,87.01
2023-05-09T01:24:57.215Z,86.56
2023-05-09T01:28:09.081Z,86.21
2023-05-09T01:31:13.586Z,86.35
2023-05-09T01:34:17.748Z,86.48
2023-05-09T01:37:25.537Z,86.20
2023-05-09T01:40:32.206Z,86.00
2023-05-09T01:43:35.716Z,86.00
2023-05-09T01:46:40.587Z,86.34
2023-05-09T01:49:44.284Z,86.95
2023-05-09T01:52:48.956Z,87.38
2023-05-09T01:55:52.256Z,87.90
2023-05-09T01:58:57.214Z,89.09
2023-05-09T02:02:01.349Z,88.73
2023-05-09T02:05:04.320Z,88.39
2023-05-09T02:08:07.298Z,88.05
2023-05-09T02:11:09.864Z,88.32
2023-05-09T02:14:12.385Z,88.06
2023-05-09T02:17:17.028Z,87.57
2023-05-09T02:20:19.718Z,87.47
2023-05-09T02:23:22.388Z,87.31
2023-05-09T02:26:25.780Z,86.72
2023-05-09T02:29:29.352Z,86.38
2023-05-09T02:32:35.261Z,86.08
2023-05-09T02:35:38.227Z,85.73
2023-05-09T02:38:42.147Z,85.94
2023-05-09T02:41:49.270Z,86.01
2023-05-09T02:44:51.956Z,86.10
2023-05-09T02:47:55.968Z,86.02
2023-05-09T02:50:58.687Z,86.16
2023-05-09T02:54:01.281Z,86.02
2023-05-09T02:57:03.978Z,85.08
2023-05-09T03:00:09.452Z,85.24
2023-05-09T03:03:13.627Z,85.13
2023-05-09T03:06:16.325Z,85.34
2023-05-09T03:09:18.825Z,86.02
2023-05-09T03:12:21.303Z,86.20
2023-05-09T03:15:24.524Z,86.48
2023-05-09T03:18:28.425Z,86.57
2023-05-09T03:21:31.910Z,86.58
2023-05-09T03:24:34.248Z,86.63
2023-05-09T03:27:37.075Z,86.16
2023-05-09T03:30:39.672Z,86.15
2023-05-09T03:33:43.640Z,86.31
2023-05-09T03:36:46.238Z,86.06
2023-05-09T03:39:48.864Z,86.00
2023-05-09T03:42:51.458Z,85.71
2023-05-09T03:45:54.355Z,86.06
2023-05-09T03:48:58.289Z,86.36
2023-05-09T03:52:00.835Z,87.25
2023-05-09T03:55:03.411Z,86.56
2023-05-09T03:58:06.246Z,86.73
2023-05-09T04:01:08.855Z,86.58
2023-05-09T04:04:13.076Z,86.81
2023-05-09T04:07:15.714Z,86.66
2023-05-09T04:10:18.500Z,86.86
2023-05-09T04:13:21.351Z,86.36
2023-05-09T04:16:24.044Z,85.93
2023-05-09T04:19:27.952Z,85.74
2023-05-09T04:22:30.594Z,85.70
2023-05-09T04:25:34.508Z,85.35
2023-05-09T04:28:37.090Z,84.41
2023-05-09T04:31:39.832Z,84.17
2023-05-09T04:34:43.794Z,83.60
2023-05-09T04:37:46.508Z,83.36
2023-05-09T04:40:48.991Z,83.15
2023-05-09T04:43:51.836Z,82.83
2023-05-09T04:46:55.082Z,82.19
2023-05-09T04:49:59.041Z,81.61
2023-05-09T04:53:01.610Z,80.33
2023-05-09T04:56:04.195Z,79.43
2023-05-09T04:59:07.022Z,78.58
2023-05-09T05:02:09.537Z,77.22
2023-05-09T05:05:13.621Z,76.75
2023-05-09T05:08:16.255Z,75.97
2023-05-09T05:11:19.134Z,75.36
2023-05-09T05:14:22.115Z,75.81
2023-05-09T05:17:24.864Z,76.01
2023-05-09T05:20:28.973Z,76.14
2023-05-09T05:23:31.539Z,76.01
2023-05-09T05:26:34.088Z,75.51
2023-05-09T05:29:36.582Z,74.20
2023-05-09T05:32:39.281Z,74.02
2023-05-09T05:35:43.214Z,73.55
2023-05-09T05:38:45.867Z,72.54
2023-05-09T05:41:48.424Z,71.80
2023-05-09T05:44:51.170Z,70.79
2023-05-09T05:47:54.447Z,70.67
2023-05-09T05:50:58.584Z,70.04
2023-05-09T05:54:01.432Z,69.02
2023-05-09T05:57:04.045Z,68.63
2023-05-09T06:00:10.437Z,67.77
2023-05-09T06:03:14.339Z,68.11
2023-05-09T06:06:18.381Z,66.61
2023-05-09T06:09:20.862Z,66.67
2023-05-09T06:12:23.577Z,65.54
2023-05-09T06:15:26.173Z,63.35
2023-05-09T06:18:29.204Z,62.75
2023-05-09T06:21:34.166Z,62.12
2023-05-09T06:24:36.799Z,61.44
2023-05-09T06:27:39.338Z,61.45
2023-05-09T06:30:41.861Z,60.52
2023-05-09T06:33:44.381Z,60.79
2023-05-09T06:36:48.650Z,60.03
2023-05-09T06:39:51.537Z,59.96
2023-05-09T06:42:54.077Z,59.89
2023-05-09T06:45:56.804Z,60.10
2023-05-09T06:49:01.637Z,60.01
2023-05-09T06:52:05.857Z,60.11
2023-05-09T06:55:09.976Z,60.06
2023-05-09T06:58:12.697Z,59.07
2023-05-09T07:01:15.519Z,57.33
2023-05-09T07:04:18.074Z,56.39
2023-05-09T07:07:22.135Z,54.79
2023-05-09T07:10:24.702Z,51.70
2023-05-09T07:13:27.572Z,53.45
2023-05-09T07:16:30.471Z,54.17
2023-05-09T07:19:32.956Z,51.39
2023-05-09T07:22:37.791Z,50.72
2023-05-09T07:25:40.582Z,48.71
2023-05-09T07:28:43.113Z,48.06
2023-05-09T07:31:45.727Z,47.33
2023-05-09T07:34:48.631Z,47.38
2023-05-09T07:37:52.800Z,48.96
2023-05-09T07:40:55.555Z,48.77
2023-05-09T07:43:58.391Z,48.82
2023-05-09T07:47:02.643Z,49.94
2023-05-09T07:50:05.802Z,49.71
2023-05-09T07:53:09.905Z,51.12
2023-05-09T07:56:13.541Z,50.89
2023-05-09T07:59:16.992Z,49.66
2023-05-09T08:02:19.768Z,49.28
2023-05-09T08:05:22.294Z,49.40
2023-05-09T08:08:27.146Z,50.08
2023-05-09T08:11:29.760Z,49.78
2023-05-09T08:14:32.344Z,49.83
2023-05-09T08:17:35.145Z,50.65
2023-05-09T08:20:37.840Z,51.13
2023-05-09T08:23:41.741Z,53.02
2023-05-09T08:26:45.301Z,51.67
2023-05-09T08:29:47.859Z,51.34
2023-05-09T08:32:50.380Z,50.70
2023-05-09T08:35:52.994Z,50.31
2023-05-09T08:38:56.915Z,49.59
2023-05-09T08:42:00.506Z,48.32
2023-05-09T08:45:07.676Z,47.36
2023-05-09T08:48:10.870Z,45.39
2023-05-09T08:51:13.772Z,45.82
2023-05-09T08:54:17.791Z,43.76
2023-05-09T08:57:20.904Z,41.01
2023-05-09T09:00:23.467Z,41.81
2023-05-09T09:03:26.459Z,42.24
2023-05-09T09:06:30.049Z,41.14
2023-05-09T09:09:34.709Z,42.73
2023-05-09T09:12:38.160Z,42.80
2023-05-09T09:15:42.463Z,42.99
2023-05-09T09:18:45.847Z,41.41
2023-05-09T09:21:51.267Z,40.80
2023-05-09T09:24:55.332Z,41.65
2023-05-09T09:27:57.877Z,41.56
2023-05-09T09:31:00.452Z,41.45
2023-05-09T09:34:03.484Z,40.52
2023-05-09T09:37:06.950Z,40.10
2023-05-09T09:40:11.680Z,39.51
2023-05-09T09:43:14.216Z,37.98
2023-05-09T09:46:18.290Z,38.72
2023-05-09T09:49:22.448Z,38.42
2023-05-09T09:52:25.934Z,41.21
2023-05-09T09:55:29.927Z,40.01
2023-05-09T09:58:32.588Z,39.24
2023-05-09T10:01:35.456Z,37.75
2023-05-09T10:04:38.718Z,38.62
2023-05-09T10:07:41.313Z,37.57
2023-05-09T10:10:45.459Z,37.17
2023-05-09T10:13:48.268Z,37.09
2023-05-09T10:16:51.449Z,39.13
2023-05-09T10:19:54.165Z,38.92
2023-05-09T10:22:58.658Z,38.44
2023-05-09T10:26:07.261Z,38.36
2023-05-09T10:29:11.759Z,36.55
2023-05-09T10:32:17.628Z,35.86
2023-05-09T10:35:21.825Z,36.10
2023-05-09T10:38:24.936Z,35.82
2023-05-09T10:41:29.587Z,33.77
2023-05-09T10:44:32.369Z,33.67
2023-05-09T10:47:35.113Z,34.02
2023-05-09T10:50:40.302Z,35.52
2023-05-09T10:53:44.502Z,37.59
2023-05-09T10:56:48.516Z,36.13
2023-05-09T10:59:52.424Z,35.09
2023-05-09T11:03:07.358Z,34.92
2023-05-09T11:06:10.126Z,37.58
2023-05-09T11:09:27.101Z,35.24
2023-05-09T11:12:32.122Z,37.50
2023-05-09T11:15:34.797Z,38.76
2023-05-09T11:18:51.138Z,38.83
2023-05-09T11:22:01.813Z,36.79
2023-05-09T11:25:05.994Z,35.10
2023-05-09T11:28:11.761Z,35.74
2023-05-09T11:31:16.136Z,36.18
2023-05-09T11:34:21.529Z,37.50
2023-05-09T11:37:24.610Z,34.78
2023-05-09T11:40:28.075Z,37.94
2023-05-09T11:43:32.221Z,35.84
2023-05-09T11:46:34.744Z,34.49
2023-05-09T11:49:37.325Z,34.43
2023-05-09T11:52:40.809Z,32.55
2023-05-09T11:55:43.384Z,31.37
2023-05-09T11:58:47.302Z,33.08
2023-05-09T12:01:49.925Z,32.60
2023-05-09T12:04:52.378Z,30.90
2023-05-09T12:07:55.195Z,29.90
2023-05-09T12:11:08.920Z,29.80
2023-05-09T12:14:12.793Z,31.80
2023-05-09T12:17:15.377Z,30.15
2023-05-09T12:20:17.771Z,30.12
2023-05-09T12:23:20.883Z,30.10
2023-05-09T12:26:23.635Z,31.23
2023-05-09T12:29:28.134Z,30.61
2023-05-09T12:32:32.969Z,29.80
2023-05-09T12:35:36.405Z,28.46
2023-05-09T12:38:39.156Z,29.17
2023-05-09T12:41:57.500Z,28.63
2023-05-09T12:45:06.151Z,27.25
2023-05-09T12:48:09.610Z,27.75
2023-05-09T12:51:12.283Z,27.13
2023-05-09T12:54:14.958Z,26.13
2023-05-09T12:57:24.262Z,24.90
2023-05-09T13:00:28.398Z,24.49
2023-05-09T13:03:37.700Z,26.80
2023-05-09T13:06:49.225Z,27.92
2023-05-09T13:09:57.918Z,30.14
2023-05-09T13:13:00.640Z,28.56
2023-05-09T13:16:05.995Z,27.55
2023-05-09T13:19:09.473Z,26.66
2023-05-09T13:22:12.473Z,28.22
2023-05-09T13:25:16.069Z,30.55
2023-05-09T13:28:18.577Z,30.84
2023-05-09T13:31:22.761Z,31.63
2023-05-09T13:34:25.765Z,33.78
2023-05-09T13:37:28.590Z,34.28
2023-05-09T13:40:31.132Z,34.81
2023-05-09T13:43:33.848Z,34.90
2023-05-09T13:46:38.052Z,35.57
2023-05-09T13:49:40.645Z,35.39
2023-05-09T13:52:43.410Z,33.00
2023-05-09T13:55:46.344Z,32.27
2023-05-09T13:58:49.017Z,32.03
2023-05-09T14:01:52.923Z,31.86
2023-05-09T14:04:55.519Z,32.25
2023-05-09T14:07:58.225Z,33.40
2023-05-09T14:11:00.563Z,34.38
2023-05-09T14:14:03.214Z,35.13
2023-05-09T14:17:07.101Z,36.13
2023-05-09T14:20:10.608Z,35.90
2023-05-09T14:23:13.475Z,35.84
2023-05-09T14:26:16.111Z,35.73
2023-05-09T14:29:18.695Z,35.90
2023-05-09T14:32:22.691Z,37.84
2023-05-09T14:35:25.454Z,40.71
2023-05-09T14:38:28.074Z,40.09
2023-05-09T14:41:31.751Z,40.99
2023-05-09T14:44:34.351Z,41.60
2023-05-09T14:47:38.431Z,42.47
2023-05-09T14:50:41.037Z,44.37
2023-05-09T14:53:43.583Z,43.02
2023-05-09T14:56:46.259Z,41.71
2023-05-09T14:59:48.840Z,38.60
2023-05-09T15:02:52.800Z,34.93
2023-05-09T15:05:55.370Z,33.16
2023-05-09T15:08:57.995Z,31.58
2023-05-09T15:12:01.866Z,30.16
2023-05-09T15:15:13.946Z,29.69
2023-05-09T15:18:18.466Z,28.98
2023-05-09T15:21:21.116Z,28.68
2023-05-09T15:24:23.815Z,28.44
2023-05-09T15:27:26.336Z,28.55
2023-05-09T15:30:29.106Z,29.01
2023-05-09T15:33:33.209Z,30.78
2023-05-09T15:36:35.733Z,32.84
2023-05-09T15:39:43.246Z,34.03
2023-05-09T15:42:48.153Z,34.76
2023-05-09T15:45:51.168Z,35.63
2023-05-09T15:48:56.230Z,35.94
2023-05-09T15:51:58.785Z,36.11
2023-05-09T15:55:01.565Z,36.92
2023-05-09T15:58:04.059Z,38.81
2023-05-09T16:01:07.998Z,39.34
2023-05-09T16:04:13.862Z,41.09
2023-05-09T16:07:16.422Z,41.98
2023-05-09T16:10:19.023Z,43.05
2023-05-09T16:13:22.373Z,43.52
2023-05-09T16:16:25.137Z,43.50
2023-05-09T16:19:29.519Z,44.64
2023-05-09T16:22:32.144Z,45.48
2023-05-09T16:25:35.519Z,47.54
2023-05-09T16:28:40.103Z,49.12
2023-05-09T16:31:44.837Z,50.96
2023-05-09T16:34:49.177Z,51.14
2023-05-09T16:37:51.866Z,51.51
2023-05-09T16:40:54.753Z,51.55
2023-05-09T16:43:57.397Z,51.69
2023-05-09T16:47:01.046Z,51.79
2023-05-09T16:50:05.713Z,51.85
2023-05-09T16:53:08.456Z,53.15
2023-05-09T16:56:11.382Z,52.94
2023-05-09T16:59:14.208Z,51.75
2023-05-09T17:02:17.049Z,51.34
2023-05-09T17:05:21.430Z,51.10
2023-05-09T17:08:24.164Z,50.98
2023-05-09T17:11:27.235Z,51.17
2023-05-09T17:14:29.810Z,51.60
2023-05-09T17:17:32.552Z,51.85
2023-05-09T17:20:36.689Z,53.14
2023-05-09T17:23:39.274Z,55.39
2023-05-09T17:26:41.805Z,57.47
2023-05-09T17:29:44.461Z,59.93
2023-05-09T17:32:47.162Z,61.53
2023-05-09T17:35:51.212Z,64.41
2023-05-09T17:38:53.908Z,66.76
2023-05-09T17:41:56.519Z,69.91
2023-05-09T17:44:59.183Z,72.03
2023-05-09T17:48:02.337Z,65.95
2023-05-09T17:51:06.441Z,65.52
2023-05-09T17:54:10.372Z,66.64
2023-05-09T17:57:13.057Z,65.91
2023-05-09T18:00:16.756Z,64.39
2023-05-09T18:03:19.662Z,66.29
2023-05-09T18:06:24.017Z,66.90
2023-05-09T18:09:26.571Z,69.39
2023-05-09T18:12:31.056Z,72.34
2023-05-09T18:15:37.877Z,74.36
2023-05-09T18:18:40.631Z,76.37
2023-05-09T18:21:44.556Z,77.76
2023-05-09T18:24:47.078Z,78.07
2023-05-09T18:27:49.745Z,80.02
2023-05-09T18:30:54.484Z,79.76
2023-05-09T18:33:57.066Z,80.51
2023-05-09T18:37:00.974Z,81.75
2023-05-09T18:40:05.172Z,81.40
2023-05-09T18:43:07.928Z,81.50
2023-05-09T18:46:10.882Z,79.80
2023-05-09T18:49:13.368Z,80.29
2023-05-09T18:52:19.038Z,79.87
2023-05-09T18:55:22.305Z,80.86
2023-05-09T18:58:25.504Z,80.62
2023-05-09T19:01:28.067Z,81.12
2023-05-09T19:04:30.898Z,80.97
2023-05-09T19:07:34.953Z,81.73
2023-05-09T19:10:37.984Z,81.59
2023-05-09T19:13:48.088Z,82.04
2023-05-09T19:16:51.369Z,81.93
2023-05-09T19:19:53.803Z,80.69
2023-05-09T19:22:57.677Z,80.21
2023-05-09T19:26:00.268Z,80.17
2023-05-09T19:29:07.811Z,80.15
2023-05-09T19:32:10.468Z,80.62
2023-05-09T19:35:13.027Z,80.41
2023-05-09T19:38:17.099Z,80.90
2023-05-09T19:41:19.886Z,79.69
2023-05-09T19:44:22.531Z,79.12
2023-05-09T19:47:25.197Z,79.64
2023-05-09T19:50:27.742Z,80.13
2023-05-09T19:53:31.661Z,80.61
2023-05-09T19:56:34.215Z,80.42
2023-05-09T19:59:36.742Z,81.26
2023-05-09T20:02:39.874Z,80.81
2023-05-09T20:05:42.589Z,81.59
2023-05-09T20:08:47.002Z,81.34
2023-05-09T20:11:50.495Z,82.08
2023-05-09T20:14:53.164Z,82.06
2023-05-09T20:17:56.038Z,83.92
2023-05-09T20:20:58.637Z,83.04
2023-05-09T20:24:03.027Z,83.12
2023-05-09T20:27:05.614Z,83.60
2023-05-09T20:30:09.237Z,83.91
2023-05-09T20:33:11.727Z,84.15
2023-05-09T20:36:15.350Z,84.40
2023-05-09T20:39:19.425Z,84.84
2023-05-09T20:42:23.184Z,84.69
2023-05-09T20:45:26.004Z,84.68
2023-05-09T20:48:28.670Z,84.68
2023-05-09T20:51:31.531Z,84.73
2023-05-09T20:54:35.368Z,84.97
2023-05-09T20:57:37.909Z,85.53
2023-05-09T21:00:40.492Z,85.50
2023-05-09T21:03:43.223Z,84.85
2023-05-09T21:06:45.905Z,85.08
2023-05-09T21:09:50.845Z,84.76
2023-05-09T21:12:53.840Z,84.93
2023-05-09T21:15:56.341Z,84.92
2023-05-09T21:19:02.494Z,85.06
2023-05-09T21:22:05.203Z,85.09
2023-05-09T21:25:10.071Z,85.33
2023-05-09T21:28:14.369Z,85.63
2023-05-09T21:31:16.978Z,85.67
2023-05-09T21:34:19.552Z,85.23
2023-05-09T21:37:22.106Z,86.12
2023-05-09T21:40:26.009Z,85.44
2023-05-09T21:43:28.913Z,86.12
2023-05-09T21:46:32.816Z,86.94
2023-05-09T21:49:35.337Z,86.49
2023-05-09T21:52:37.927Z,86.58
2023-05-09T21:55:41.889Z,87.17
2023-05-09T21:58:44.498Z,87.39
2023-05-09T22:01:47.291Z,86.57
2023-05-09T22:04:50.295Z,87.28
2023-05-09T22:07:52.871Z,87.37
2023-05-09T22:10:56.771Z,87.23
2023-05-09T22:13:59.479Z,87.55
2023-05-09T22:17:02.062Z,88.01
2023-05-09T22:20:05.819Z,88.49
2023-05-09T22:23:08.471Z,88.21
2023-05-09T22:26:12.304Z,88.28
2023-05-09T22:29:16.482Z,87.75
2023-05-09T22:32:19.067Z,86.68
2023-05-09T22:35:21.556Z,86.45
2023-05-09T22:38:24.364Z,86.47
2023-05-09T22:41:28.495Z,86.19
2023-05-09T22:44:32.335Z,86.22
2023-05-09T22:47:35.097Z,86.40
2023-05-09T22:50:37.683Z,86.09
2023-05-09T22:53:40.210Z,86.93
2023-05-09T22:56:44.527Z,86.92
2023-05-09T22:59:47.172Z,86.89
2023-05-09T23:02:49.899Z,86.92
2023-05-09T23:05:52.820Z,86.07
2023-05-09T23:08:55.292Z,86.58
2023-05-09T23:11:59.525Z,87.42
2023-05-09T23:15:02.035Z,87.19
2023-05-09T23:18:04.948Z,87.09
2023-05-09T23:21:07.543Z,86.90
2023-05-09T23:24:10.049Z,87.93
2023-05-09T23:27:13.926Z,87.16
2023-05-09T23:30:16.793Z,87.24
2023-05-09T23:33:19.514Z,87.36
2023-05-09T23:36:22.148Z,86.75
2023-05-09T23:39:24.639Z,87.75
2023-05-09T23:42:28.835Z,88.13
2023-05-09T23:45:31.364Z,87.37
2023-05-09T23:48:33.905Z,87.81
2023-05-09T23:51:36.405Z,86.91
2023-05-09T23:54:39.780Z,87.02
2023-05-09T23:57:43.583Z,85.95
